Time;durP1;ratioP1;P1;durP2;ratioP2;P2;SDS_P1;SDS_P2;PMS_P1;PMS_P2;Temp;Humidity;BMP_temperature;BMP_pressure;BME280_temperature;BME280_humidity;BME280_pressure;Samples;Min_cycle;Max_cycle;Signal;HPM_P1;HPM_P2
2022/03/25 00:02:23;;;;;;;28.52;19.13;;;;;;;;;;5054656;28;20049;-81
2022/03/25 00:04:50;;;;;;;29.67;19.52;;;;;;;;;;5054325;28;20505;-80
2022/03/25 00:07:17;;;;;;;27.83;19.52;;;;;;;;;;5054688;28;20048;-80
2022/03/25 00:09:43;;;;;;;29.70;20.00;;;;;;;;;;5054685;28;20404;-80
2022/03/25 00:12:10;;;;;;;29.52;19.73;;;;;;;;;;5053129;28;20041;-80
2022/03/25 00:14:37;;;;;;;28.55;19.77;;;;;;;;;;5054265;28;20065;-80
2022/03/25 00:17:03;;;;;;;30.50;19.20;;;;;;;;;;5054243;28;20067;-80
2022/03/25 00:19:30;;;;;;;31.30;21.23;;;;;;;;;;5053215;28;20316;-80
2022/03/25 00:21:57;;;;;;;28.70;20.10;;;;;;;;;;5054078;28;20049;-79
2022/03/25 00:24:24;;;;;;;27.02;20.33;;;;;;;;;;5054612;28;20060;-80
2022/03/25 00:26:51;;;;;;;30.73;20.77;;;;;;;;;;5053927;28;20049;-80
2022/03/25 00:29:17;;;;;;;30.00;20.50;;;;;;;;;;5053998;28;20056;-80
2022/03/25 00:31:44;;;;;;;34.72;20.08;;;;;;;;;;5052715;28;20463;-79
2022/03/25 00:34:10;;;;;;;30.00;19.30;;;;;;;;;;5053835;28;20041;-79
2022/03/25 00:36:37;;;;;;;28.17;18.70;;;;;;;;;;5052584;28;20057;-79
2022/03/25 00:39:04;;;;;;;27.10;19.25;;;;;;;;;;5053777;28;20045;-79
2022/03/25 00:41:36;;;;;;;26.98;18.17;;;;;;;;;;5052763;28;20126;-79
2022/03/25 00:44:07;;;;;;;28.63;18.65;;;;;;;;;;5053932;28;20057;-79
2022/03/25 00:46:34;;;;;;;29.55;19.13;;;;;;;;;;5048870;28;20045;-80
2022/03/25 00:49:01;;;;;;;29.80;18.85;;;;;;;;;;5043870;28;20045;-80
2022/03/25 00:51:28;;;;;;;26.98;19.00;;;;;;;;;;5039630;28;20098;-80
2022/03/25 00:53:55;;;;;;;30.13;20.00;;;;;;;;;;5052327;28;20041;-80
2022/03/25 00:56:21;;;;;;;28.03;18.93;;;;;;;;;;5053308;28;20504;-80
2022/03/25 00:58:49;;;;;;;28.05;17.77;;;;;;;;;;5052441;28;20056;-80
2022/03/25 01:01:16;;;;;;;29.60;20.55;;;;;;;;;;5053262;28;20582;-80
2022/03/25 01:03:43;;;;;;;26.58;19.73;;;;;;;;;;5053608;28;20089;-80
2022/03/25 01:06:10;;;;;;;30.55;19.90;;;;;;;;;;5052181;28;20052;-80
2022/03/25 01:08:36;;;;;;;25.17;18.67;;;;;;;;;;5053430;28;20451;-80
2022/03/25 01:11:04;;;;;;;29.25;19.73;;;;;;;;;;5053521;28;20407;-80
2022/03/25 01:13:33;;;;;;;27.83;19.15;;;;;;;;;;5051835;28;20052;-80
2022/03/25 01:16:05;;;;;;;29.40;19.05;;;;;;;;;;5051891;28;20519;-81
2022/03/25 01:18:31;;;;;;;32.97;20.95;;;;;;;;;;5053014;28;20535;-80
2022/03/25 01:20:58;;;;;;;29.70;19.33;;;;;;;;;;5053130;28;20057;-80
2022/03/25 01:23:26;;;;;;;31.67;20.70;;;;;;;;;;5052672;28;20099;-80
2022/03/25 01:25:53;;;;;;;25.75;19.30;;;;;;;;;;5053054;28;20351;-80
2022/03/25 01:28:20;;;;;;;28.73;20.20;;;;;;;;;;5051683;28;20416;-80
2022/03/25 01:30:46;;;;;;;29.75;19.73;;;;;;;;;;5052770;28;20123;-79
2022/03/25 01:33:14;;;;;;;28.42;20.13;;;;;;;;;;5052609;28;20060;-80
2022/03/25 01:35:41;;;;;;;30.85;19.25;;;;;;;;;;5051668;28;20049;-80
2022/03/25 01:38:07;;;;;;;33.33;19.75;;;;;;;;;;5053003;28;20052;-79
2022/03/25 01:40:34;;;;;;;29.30;20.27;;;;;;;;;;5051316;28;20084;-79
2022/03/25 01:43:01;;;;;;;29.90;20.38;;;;;;;;;;5052644;28;20044;-80
2022/03/25 01:45:34;;;;;;;29.17;20.27;;;;;;;;;;5052811;28;20052;-79
2022/03/25 01:48:09;;;;;;;29.48;19.25;;;;;;;;;;5052758;28;20403;-80
2022/03/25 01:50:36;;;;;;;32.00;20.52;;;;;;;;;;5052485;28;20056;-80
2022/03/25 01:53:08;;;;;;;28.50;20.00;;;;;;;;;;5052547;28;20051;-80
2022/03/25 01:55:38;;;;;;;33.88;19.88;;;;;;;;;;5051123;28;20061;-80
2022/03/25 01:58:06;;;;;;;30.88;20.77;;;;;;;;;;5052282;28;20452;-80
2022/03/25 02:00:33;;;;;;;30.63;20.02;;;;;;;;;;5052225;28;20052;-80
2022/03/25 02:03:00;;;;;;;27.42;18.58;;;;;;;;;;5052375;28;20412;-80
2022/03/25 02:05:27;;;;;;;31.38;18.25;;;;;;;;;;5051120;28;20045;-80
2022/03/25 02:07:53;;;;;;;29.10;19.25;;;;;;;;;;5052454;28;20485;-80
2022/03/25 02:10:20;;;;;;;32.58;21.33;;;;;;;;;;5051994;28;20539;-81
2022/03/25 02:12:46;;;;;;;32.40;21.00;;;;;;;;;;5051973;28;20516;-80
2022/03/25 02:15:13;;;;;;;27.65;18.95;;;;;;;;;;5051941;28;20495;-80
2022/03/25 02:17:39;;;;;;;29.15;18.77;;;;;;;;;;5052030;28;20084;-80
2022/03/25 02:20:08;;;;;;;29.77;20.20;;;;;;;;;;5052024;28;20500;-80
2022/03/25 02:22:39;;;;;;;30.13;19.67;;;;;;;;;;5050893;28;20098;-80
2022/03/25 02:25:09;;;;;;;30.90;19.75;;;;;;;;;;5050514;28;20048;-80
2022/03/25 02:27:36;;;;;;;27.83;18.55;;;;;;;;;;5043937;28;20107;-80
2022/03/25 02:30:03;;;;;;;26.57;18.83;;;;;;;;;;5044955;28;20045;-80
2022/03/25 02:32:30;;;;;;;27.38;18.42;;;;;;;;;;5051672;28;20049;-80
2022/03/25 02:34:56;;;;;;;28.83;20.17;;;;;;;;;;5051643;28;20119;-80
2022/03/25 02:37:25;;;;;;;31.45;18.77;;;;;;;;;;5051677;28;20045;-81
2022/03/25 02:39:54;;;;;;;28.83;18.63;;;;;;;;;;5051589;28;20567;-81
2022/03/25 02:42:21;;;;;;;28.88;18.77;;;;;;;;;;5050543;28;20106;-80
2022/03/25 02:44:48;;;;;;;28.45;18.95;;;;;;;;;;5051734;28;20052;-80
2022/03/25 02:47:16;;;;;;;28.63;19.13;;;;;;;;;;5051683;28;20110;-80
2022/03/25 02:49:42;;;;;;;30.73;19.27;;;;;;;;;;5051618;28;20106;-81
2022/03/25 02:52:09;;;;;;;28.67;18.30;;;;;;;;;;5051694;28;20053;-81
2022/03/25 02:54:35;;;;;;;28.55;19.13;;;;;;;;;;5051559;28;20068;-81
2022/03/25 02:57:02;;;;;;;30.70;19.42;;;;;;;;;;5050442;28;20052;-80
2022/03/25 02:59:28;;;;;;;27.77;18.63;;;;;;;;;;5051363;28;20099;-80
2022/03/25 03:01:55;;;;;;;30.83;19.17;;;;;;;;;;5051330;28;20053;-81
2022/03/25 03:04:22;;;;;;;28.40;19.40;;;;;;;;;;5050400;28;20454;-80
2022/03/25 03:06:48;;;;;;;26.23;19.58;;;;;;;;;;5051214;28;20072;-80
2022/03/25 03:09:15;;;;;;;26.35;19.60;;;;;;;;;;5051334;28;20455;-81
2022/03/25 03:11:41;;;;;;;27.60;20.13;;;;;;;;;;5051531;28;20056;-81
2022/03/25 03:14:08;;;;;;;26.33;19.08;;;;;;;;;;5044708;28;20103;-81
2022/03/25 03:16:34;;;;;;;26.67;18.65;;;;;;;;;;5051561;28;20099;-81
2022/03/25 03:19:07;;;;;;;30.75;19.77;;;;;;;;;;5051276;28;20525;-81
2022/03/25 03:21:34;;;;;;;27.23;18.60;;;;;;;;;;5051111;28;20056;-81
2022/03/25 03:24:00;;;;;;;25.40;18.65;;;;;;;;;;5051817;28;20099;-81
2022/03/25 03:26:27;;;;;;;27.90;18.85;;;;;;;;;;5051331;28;20045;-81
2022/03/25 03:28:53;;;;;;;28.35;18.08;;;;;;;;;;5051211;28;20048;-81
2022/03/25 03:31:20;;;;;;;27.13;18.48;;;;;;;;;;5049787;28;20107;-80
2022/03/25 03:33:46;;;;;;;26.42;18.50;;;;;;;;;;5051170;28;20049;-80
2022/03/25 03:36:13;;;;;;;28.65;19.48;;;;;;;;;;5051298;28;20123;-80
2022/03/25 03:38:39;;;;;;;31.27;19.50;;;;;;;;;;5051000;28;20076;-80
2022/03/25 03:41:05;;;;;;;27.15;18.75;;;;;;;;;;5051012;28;20649;-80
2022/03/25 03:43:32;;;;;;;28.95;20.15;;;;;;;;;;5051254;28;20099;-80
2022/03/25 03:45:58;;;;;;;29.48;19.17;;;;;;;;;;5049940;28;20049;-80
2022/03/25 03:48:25;;;;;;;31.45;19.70;;;;;;;;;;5054432;28;20049;-80
2022/03/25 03:50:51;;;;;;;29.85;19.23;;;;;;;;;;5054685;28;20045;-82
2022/03/25 03:53:18;;;;;;;29.80;18.90;;;;;;;;;;5054652;28;20102;-81
2022/03/25 03:55:44;;;;;;;30.15;19.08;;;;;;;;;;5053398;28;20049;-81
2022/03/25 03:58:11;;;;;;;30.58;18.73;;;;;;;;;;5053598;28;20099;-81
2022/03/25 04:00:37;;;;;;;26.58;17.60;;;;;;;;;;5054608;28;20390;-80
2022/03/25 04:03:06;;;;;;;27.70;19.17;;;;;;;;;;5054837;28;20067;-81
2022/03/25 04:05:33;;;;;;;31.10;19.70;;;;;;;;;;5053425;28;20096;-81
2022/03/25 04:07:59;;;;;;;29.95;18.98;;;;;;;;;;5054345;28;20488;-82
2022/03/25 04:10:26;;;;;;;29.60;19.08;;;;;;;;;;5054232;28;20040;-82
2022/03/25 04:12:52;;;;;;;29.92;18.85;;;;;;;;;;5054416;28;20053;-81
2022/03/25 04:15:20;;;;;;;31.88;19.08;;;;;;;;;;5054465;28;20455;-81
2022/03/25 04:17:47;;;;;;;23.75;17.02;;;;;;;;;;5053120;28;20122;-81
2022/03/25 04:20:14;;;;;;;29.25;19.02;;;;;;;;;;5054092;28;20080;-81
2022/03/25 04:22:44;;;;;;;31.88;19.60;;;;;;;;;;5052734;28;20518;-81
2022/03/25 04:25:11;;;;;;;28.00;19.33;;;;;;;;;;5054423;28;20057;-81
2022/03/25 04:27:47;;;;;;;26.10;18.27;;;;;;;;;;5052597;28;20098;-80
2022/03/25 04:30:16;;;;;;;30.45;18.50;;;;;;;;;;5052805;28;20049;-80
2022/03/25 04:32:43;;;;;;;29.15;18.63;;;;;;;;;;5052615;28;20111;-80
2022/03/25 04:35:09;;;;;;;28.48;18.13;;;;;;;;;;5054098;28;20041;-80
2022/03/25 04:37:36;;;;;;;25.48;16.95;;;;;;;;;;5054134;28;20049;-81
2022/03/25 04:40:03;;;;;;;30.85;18.20;;;;;;;;;;5053757;28;20044;-80
2022/03/25 04:42:29;;;;;;;28.13;18.73;;;;;;;;;;5052506;28;20057;-81
2022/03/25 04:44:56;;;;;;;35.03;20.73;;;;;;;;;;5053605;28;20095;-81
2022/03/25 04:47:22;;;;;;;30.23;19.10;;;;;;;;;;5053494;28;20049;-81
2022/03/25 04:49:49;;;;;;;30.95;19.50;;;;;;;;;;5053718;28;20465;-81
2022/03/25 04:52:15;;;;;;;28.00;19.00;;;;;;;;;;5052494;28;20123;-81
2022/03/25 04:54:41;;;;;;;30.17;19.13;;;;;;;;;;5052135;28;20103;-81
2022/03/25 04:57:08;;;;;;;26.38;17.75;;;;;;;;;;5053461;28;20052;-81
2022/03/25 04:59:35;;;;;;;30.40;18.90;;;;;;;;;;5051518;28;20453;-81
2022/03/25 05:02:01;;;;;;;29.75;19.25;;;;;;;;;;5053543;28;20083;-81
2022/03/25 05:04:28;;;;;;;27.85;19.00;;;;;;;;;;5052303;28;20101;-81
2022/03/25 05:06:55;;;;;;;29.27;19.45;;;;;;;;;;5053146;28;20080;-81
2022/03/25 05:09:21;;;;;;;29.98;19.58;;;;;;;;;;5053256;28;20544;-81
2022/03/25 05:11:47;;;;;;;29.58;20.35;;;;;;;;;;5051868;28;20079;-82
2022/03/25 05:14:14;;;;;;;27.92;18.90;;;;;;;;;;5053399;28;20045;-82
2022/03/25 05:16:44;;;;;;;27.00;18.05;;;;;;;;;;5052160;28;20049;-81
2022/03/25 05:19:10;;;;;;;29.58;19.65;;;;;;;;;;5053315;28;20095;-81
2022/03/25 05:21:37;;;;;;;27.25;18.92;;;;;;;;;;5052929;28;20080;-81
2022/03/25 05:24:04;;;;;;;28.88;18.90;;;;;;;;;;5053040;28;20417;-81
2022/03/25 05:26:30;;;;;;;30.40;18.95;;;;;;;;;;5053078;28;20053;-80
2022/03/25 05:28:56;;;;;;;28.10;18.10;;;;;;;;;;5053168;28;20128;-81
2022/03/25 05:31:23;;;;;;;30.38;18.35;;;;;;;;;;5052838;28;20451;-81
2022/03/25 05:33:49;;;;;;;29.73;18.20;;;;;;;;;;5052994;28;20057;-81
2022/03/25 05:36:16;;;;;;;28.58;18.60;;;;;;;;;;5052612;28;20052;-80
2022/03/25 05:38:42;;;;;;;27.92;18.52;;;;;;;;;;5053013;28;20079;-81
2022/03/25 05:41:09;;;;;;;29.73;18.60;;;;;;;;;;5052564;28;20049;-81
2022/03/25 05:43:35;;;;;;;29.75;19.35;;;;;;;;;;5051668;28;20080;-82
2022/03/25 05:46:03;;;;;;;28.10;18.80;;;;;;;;;;5052751;28;20134;-81
2022/03/25 05:48:30;;;;;;;28.48;17.38;;;;;;;;;;5052584;28;20067;-82
2022/03/25 05:50:56;;;;;;;31.58;19.30;;;;;;;;;;5052691;28;20049;-81
2022/03/25 05:53:23;;;;;;;27.13;18.60;;;;;;;;;;5052280;28;20095;-81
2022/03/25 05:55:49;;;;;;;32.28;18.95;;;;;;;;;;5052641;28;20049;-81
2022/03/25 05:58:16;;;;;;;31.30;18.50;;;;;;;;;;5052267;28;20390;-80
2022/03/25 06:00:42;;;;;;;31.52;19.17;;;;;;;;;;5052489;28;20065;-81
2022/03/25 06:03:10;;;;;;;27.63;19.13;;;;;;;;;;5052275;28;20056;-80
2022/03/25 06:05:36;;;;;;;29.02;18.92;;;;;;;;;;5052521;28;20052;-81
2022/03/25 06:08:03;;;;;;;29.83;20.30;;;;;;;;;;5050895;28;20107;-81
2022/03/25 06:10:29;;;;;;;30.90;19.20;;;;;;;;;;5051124;28;20098;-81
2022/03/25 06:12:56;;;;;;;29.60;18.58;;;;;;;;;;5052086;28;20049;-81
2022/03/25 06:15:22;;;;;;;31.42;19.60;;;;;;;;;;5051901;28;20094;-81
2022/03/25 06:17:51;;;;;;;30.83;18.85;;;;;;;;;;5051964;28;20052;-81
2022/03/25 06:20:17;;;;;;;;;;;;;;;;;;5052278;28;20508;-81
2022/03/25 06:22:44;;;;;;;33.03;19.20;;;;;;;;;;5051919;28;19921;-81
2022/03/25 06:25:12;;;;;;;29.80;17.95;;;;;;;;;;5052129;28;20053;-81
2022/03/25 06:27:45;;;;;;;27.67;18.42;;;;;;;;;;5051994;28;20053;-81
2022/03/25 06:30:12;;;;;;;33.17;19.63;;;;;;;;;;5050904;28;20111;-81
2022/03/25 06:32:38;;;;;;;28.45;19.50;;;;;;;;;;5051586;28;20118;-81
2022/03/25 06:35:07;;;;;;;28.67;19.25;;;;;;;;;;5050404;28;20048;-81
2022/03/25 06:37:34;;;;;;;29.98;19.20;;;;;;;;;;5051675;28;20513;-81
2022/03/25 06:40:00;;;;;;;28.92;19.27;;;;;;;;;;5051592;28;20489;-81
2022/03/25 06:42:26;;;;;;;31.55;20.05;;;;;;;;;;5051641;28;20053;-81
2022/03/25 06:44:53;;;;;;;34.78;20.15;;;;;;;;;;5051863;28;20045;-81
2022/03/25 06:47:19;;;;;;;34.15;20.25;;;;;;;;;;5051452;28;20048;-80
2022/03/25 06:49:46;;;;;;;30.30;19.75;;;;;;;;;;5051545;28;20049;-81
2022/03/25 06:52:13;;;;;;;30.95;19.60;;;;;;;;;;5051387;28;20090;-80
2022/03/25 06:54:39;;;;;;;32.88;18.65;;;;;;;;;;5051809;28;20052;-80
2022/03/25 06:57:06;;;;;;;28.60;18.13;;;;;;;;;;5051473;28;20071;-82
2022/03/25 06:59:33;;;;;;;27.95;18.92;;;;;;;;;;5051437;28;20098;-83
2022/03/25 07:01:59;;;;;;;27.92;17.98;;;;;;;;;;5051565;28;20098;-80
2022/03/25 07:04:26;;;;;;;29.33;18.38;;;;;;;;;;5034185;28;20046;-80
2022/03/25 07:06:55;;;;;;;28.70;18.00;;;;;;;;;;5033155;28;20049;-81
2022/03/25 07:09:22;;;;;;;31.40;18.75;;;;;;;;;;5033479;28;20053;-81
2022/03/25 07:11:48;;;;;;;33.60;20.40;;;;;;;;;;5033904;28;20053;-81
2022/03/25 07:14:14;;;;;;;27.10;17.90;;;;;;;;;;5031184;28;20041;-81
2022/03/25 07:16:42;;;;;;;30.05;18.95;;;;;;;;;;5030755;28;20452;-84
2022/03/25 07:19:09;;;;;;;31.20;18.63;;;;;;;;;;5030217;28;20053;-85
2022/03/25 07:21:36;;;;;;;30.85;19.73;;;;;;;;;;5039600;28;20134;-83
2022/03/25 07:24:03;;;;;;;28.60;18.92;;;;;;;;;;5036198;28;20095;-84
2022/03/25 07:26:30;;;;;;;26.17;17.40;;;;;;;;;;5036366;28;20103;-79
2022/03/25 07:28:56;;;;;;;28.23;18.20;;;;;;;;;;5055327;28;20049;-82
2022/03/25 07:31:28;;;;;;;31.33;19.05;;;;;;;;;;5055169;28;20118;-85
2022/03/25 07:33:55;;;;;;;29.30;19.83;;;;;;;;;;5055533;28;20071;-80
2022/03/25 07:36:21;;;;;;;32.27;20.30;;;;;;;;;;5055093;28;20076;-78
2022/03/25 07:38:48;;;;;;;30.45;20.15;;;;;;;;;;5055065;28;20060;-82
2022/03/25 07:41:14;;;;;;;31.17;20.98;;;;;;;;;;5055218;28;20053;-79
2022/03/25 07:43:41;;;;;;;32.78;20.92;;;;;;;;;;5054822;28;20102;-81
2022/03/25 07:46:07;;;;;;;30.33;20.90;;;;;;;;;;5053797;28;20098;-78
2022/03/25 07:48:38;;;;;;;30.25;19.90;;;;;;;;;;5033948;28;20144;-78
2022/03/25 07:51:05;;;;;;;30.27;19.58;;;;;;;;;;5032814;28;20091;-78
2022/03/25 07:53:32;;;;;;;29.88;20.38;;;;;;;;;;5033443;28;20049;-75
2022/03/25 07:55:59;;;;;;;30.13;21.02;;;;;;;;;;5049928;28;20053;-78
2022/03/25 07:58:25;;;;;;;31.25;21.25;;;;;;;;;;5048059;28;20045;-78
2022/03/25 08:00:52;;;;;;;32.90;22.23;;;;;;;;;;5053277;28;20515;-78
2022/03/25 08:03:18;;;;;;;31.17;21.17;;;;;;;;;;5054781;28;20057;-80
2022/03/25 08:05:50;;;;;;;29.58;20.55;;;;;;;;;;5041560;28;20052;-80
2022/03/25 08:08:19;;;;;;;31.70;22.08;;;;;;;;;;5052505;28;20481;-79
2022/03/25 08:10:47;;;;;;;31.83;21.38;;;;;;;;;;5054238;28;20133;-80
2022/03/25 08:13:15;;;;;;;30.70;21.65;;;;;;;;;;5052512;28;20091;-78
2022/03/25 08:15:42;;;;;;;30.95;21.80;;;;;;;;;;5054526;28;20102;-78
2022/03/25 08:18:13;;;;;;;30.58;21.70;;;;;;;;;;5054456;28;20076;-79
2022/03/25 08:20:40;;;;;;;30.25;22.40;;;;;;;;;;5054404;28;20401;-79
2022/03/25 08:23:09;;;;;;;31.40;21.52;;;;;;;;;;5053173;28;20048;-76
2022/03/25 08:28:20;;;;;;;31.02;22.52;;;;;;;;;;5046915;28;20049;-80
2022/03/25 08:30:47;;;;;;;38.97;25.77;;;;;;;;;;5047335;28;20045;-78
2022/03/25 08:33:13;;;;;;;34.57;24.77;;;;;;;;;;5052790;28;20045;-80
2022/03/25 08:35:41;;;;;;;34.15;24.05;;;;;;;;;;5053484;28;20332;-80
2022/03/25 08:38:08;;;;;;;35.92;26.40;;;;;;;;;;5053823;28;20075;-80
2022/03/25 08:40:35;;;;;;;42.33;28.33;;;;;;;;;;5054147;28;20053;-80
2022/03/25 08:43:22;;;;;;;39.22;28.05;;;;;;;;;;5053191;28;20556;-80
2022/03/25 08:45:48;;;;;;;39.78;29.50;;;;;;;;;;5053270;28;20053;-79
2022/03/25 08:48:14;;;;;;;44.55;31.40;;;;;;;;;;5053602;28;20045;-79
2022/03/25 08:50:41;;;;;;;41.92;31.20;;;;;;;;;;5053963;28;20053;-79
2022/03/25 08:53:07;;;;;;;42.80;31.75;;;;;;;;;;5053466;28;20451;-78
2022/03/25 08:55:34;;;;;;;47.80;32.37;;;;;;;;;;5053624;28;20045;-80
2022/03/25 08:58:00;;;;;;;39.92;31.20;;;;;;;;;;5053515;28;20098;-80
2022/03/25 09:00:27;;;;;;;46.63;32.65;;;;;;;;;;5046604;28;20049;-74
2022/03/25 09:02:53;;;;;;;42.33;30.47;;;;;;;;;;5049666;28;20583;-74
2022/03/25 09:05:20;;;;;;;43.83;31.30;;;;;;;;;;5049447;28;20294;-74
2022/03/25 09:07:46;;;;;;;44.47;31.47;;;;;;;;;;5052508;28;20041;-76
2022/03/25 09:10:16;;;;;;;42.03;31.73;;;;;;;;;;5047953;28;20049;-75
2022/03/25 09:12:44;;;;;;;40.17;30.77;;;;;;;;;;5050773;28;20099;-74
2022/03/25 09:15:10;;;;;;;;;;;;;;;;;;5052809;28;20044;-73
2022/03/25 09:17:36;;;;;;;40.42;31.48;;;;;;;;;;5041899;28;19944;-74
2022/03/25 09:20:04;;;;;;;41.72;32.70;;;;;;;;;;5035486;28;20051;-73
2022/03/25 09:22:31;;;;;;;44.38;32.22;;;;;;;;;;5052203;28;20389;-73
2022/03/25 09:25:03;;;;;;;43.00;32.05;;;;;;;;;;5047552;28;20103;-74
2022/03/25 09:27:30;;;;;;;42.10;32.47;;;;;;;;;;5037222;28;20057;-74
2022/03/25 09:29:57;;;;;;;41.53;32.53;;;;;;;;;;5032289;28;20046;-74
2022/03/25 09:32:23;;;;;;;43.42;32.72;;;;;;;;;;5031905;28;20049;-74
2022/03/25 09:35:08;;;;;;;47.63;32.85;;;;;;;;;;5034129;28;20053;-74
2022/03/25 09:37:36;;;;;;;47.15;33.95;;;;;;;;;;5051659;28;20060;-74
2022/03/25 09:40:06;;;;;;;44.60;31.95;;;;;;;;;;5051368;28;20086;-73
2022/03/25 09:42:33;;;;;;;46.20;32.75;;;;;;;;;;5042878;28;20501;-73
2022/03/25 09:45:00;;;;;;;45.40;32.03;;;;;;;;;;5031855;28;20065;-73
2022/03/25 09:47:27;;;;;;;44.22;31.73;;;;;;;;;;5029439;28;20555;-74
2022/03/25 09:49:53;;;;;;;43.08;32.78;;;;;;;;;;5030790;28;20069;-75
2022/03/25 09:52:21;;;;;;;43.07;32.87;;;;;;;;;;5048128;28;20048;-74
2022/03/25 09:55:07;;;;;;;44.92;33.47;;;;;;;;;;5050888;28;20332;-74
2022/03/25 09:57:34;;;;;;;44.83;34.63;;;;;;;;;;5051746;28;20045;-74
2022/03/25 10:00:01;;;;;;;45.88;35.22;;;;;;;;;;5051972;28;20099;-74
2022/03/25 10:02:27;;;;;;;44.03;32.22;;;;;;;;;;5037668;28;20041;-75
2022/03/25 10:04:56;;;;;;;42.30;32.47;;;;;;;;;;5031667;28;21161;-74
2022/03/25 10:07:24;;;;;;;42.55;32.10;;;;;;;;;;5031294;28;20107;-74
2022/03/25 10:10:07;;;;;;;39.22;31.02;;;;;;;;;;5031316;28;20041;-74
2022/03/25 10:12:34;;;;;;;39.72;30.50;;;;;;;;;;5031297;28;20096;-74
2022/03/25 10:15:22;;;;;;;41.13;31.02;;;;;;;;;;5035219;28;20045;-75
2022/03/25 10:17:49;;;;;;;37.53;30.48;;;;;;;;;;5051787;28;20056;-75
2022/03/25 10:20:16;;;;;;;38.20;30.48;;;;;;;;;;5051459;28;20412;-74
2022/03/25 10:23:01;;;;;;;40.67;29.20;;;;;;;;;;5051341;28;20569;-75
2022/03/25 10:25:36;;;;;;;35.57;28.43;;;;;;;;;;5021524;28;20444;-75
2022/03/25 10:28:03;;;;;;;37.03;28.38;;;;;;;;;;5031317;28;20725;-75
2022/03/25 10:30:35;;;;;;;35.53;27.67;;;;;;;;;;5031157;28;20045;-74
2022/03/25 10:33:07;;;;;;;36.50;26.95;;;;;;;;;;5031041;28;20060;-74
2022/03/25 10:35:50;;;;;;;33.90;26.33;;;;;;;;;;5031522;28;20053;-74
2022/03/25 10:38:17;;;;;;;37.38;26.73;;;;;;;;;;5031322;28;20103;-75
2022/03/25 10:40:53;;;;;;;35.53;27.60;;;;;;;;;;5031496;28;20084;-75
2022/03/25 10:43:21;;;;;;;38.10;27.13;;;;;;;;;;5031115;28;20053;-72
2022/03/25 10:45:47;;;;;;;;;;;;;;;;;;5031646;28;20072;-75
2022/03/25 10:48:16;;;;;;;32.25;25.30;;;;;;;;;;5029014;28;19932;-75
2022/03/25 10:51:03;;;;;;;32.58;24.52;;;;;;;;;;5031224;28;20053;-73
2022/03/25 10:53:31;;;;;;;32.08;24.55;;;;;;;;;;5031303;28;20080;-74
2022/03/25 10:56:03;;;;;;;31.20;23.85;;;;;;;;;;5030242;28;20046;-74
2022/03/25 10:58:29;;;;;;;30.05;23.65;;;;;;;;;;5031244;28;20053;-71
2022/03/25 11:00:56;;;;;;;26.98;22.10;;;;;;;;;;5031005;28;20485;-75
2022/03/25 11:03:23;;;;;;;27.80;23.40;;;;;;;;;;5031065;28;20068;-74
2022/03/25 11:05:50;;;;;;;;;;;;;;;;;;5031315;28;20049;-74
2022/03/25 11:08:16;;;;;;;29.30;23.30;;;;;;;;;;5031111;28;19921;-72
2022/03/25 11:10:43;;;;;;;27.27;21.80;;;;;;;;;;5030834;28;20099;-77
2022/03/25 11:13:09;;;;;;;;;;;;;;;;;;5031561;28;20046;-72
2022/03/25 11:15:37;;;;;;;27.85;23.23;;;;;;;;;;5031102;28;19929;-74
2022/03/25 11:18:04;;;;;;;26.85;22.40;;;;;;;;;;5029473;28;20523;-74
2022/03/25 11:20:30;;;;;;;25.95;20.85;;;;;;;;;;5030549;28;20057;-73
2022/03/25 11:23:06;;;;;;;26.80;23.05;;;;;;;;;;5036846;28;20088;-75
2022/03/25 11:25:35;;;;;;;26.15;21.50;;;;;;;;;;5045456;28;20049;-75
2022/03/25 11:28:09;;;;;;;26.13;22.23;;;;;;;;;;5051482;28;20052;-75
2022/03/25 11:30:36;;;;;;;28.05;22.85;;;;;;;;;;5051374;28;20095;-75
2022/03/25 11:33:03;;;;;;;28.55;22.83;;;;;;;;;;5051073;28;20053;-75
2022/03/25 11:35:32;;;;;;;27.80;23.95;;;;;;;;;;5051067;28;20052;-75
2022/03/25 11:38:11;;;;;;;28.15;24.08;;;;;;;;;;5051052;28;20053;-75
2022/03/25 11:40:42;;;;;;;30.13;23.38;;;;;;;;;;5051360;28;20049;-75
2022/03/25 11:43:12;;;;;;;31.67;24.67;;;;;;;;;;5051329;28;20049;-75
2022/03/25 11:45:39;;;;;;;28.27;22.23;;;;;;;;;;5051053;28;20088;-75
2022/03/25 11:48:06;;;;;;;25.38;21.77;;;;;;;;;;5050966;28;20049;-75
2022/03/25 11:50:36;;;;;;;27.73;23.83;;;;;;;;;;5051188;28;20114;-75
2022/03/25 11:53:11;;;;;;;28.50;23.50;;;;;;;;;;5050822;28;20044;-75
2022/03/25 11:55:53;;;;;;;25.67;21.73;;;;;;;;;;5051243;28;20094;-74
2022/03/25 11:58:20;;;;;;;24.40;20.92;;;;;;;;;;5026690;28;20061;-75
2022/03/25 12:01:09;;;;;;;24.67;21.48;;;;;;;;;;5050625;28;20137;-75
2022/03/25 12:03:42;;;;;;;26.17;22.05;;;;;;;;;;5040312;28;20115;-75
2022/03/25 12:06:09;;;;;;;25.65;21.38;;;;;;;;;;5050684;28;20084;-75
2022/03/25 12:08:36;;;;;;;24.52;20.02;;;;;;;;;;5038812;28;20103;-75
2022/03/25 12:11:06;;;;;;;25.92;20.00;;;;;;;;;;5033791;28;20049;-75
2022/03/25 12:13:54;;;;;;;24.30;20.73;;;;;;;;;;5047240;28;20472;-75
2022/03/25 12:16:39;;;;;;;25.02;22.33;;;;;;;;;;5044875;28;20041;-74
2022/03/25 12:19:28;;;;;;;27.40;21.95;;;;;;;;;;5052879;28;20049;-74
2022/03/25 12:21:54;;;;;;;25.38;22.13;;;;;;;;;;5051785;28;20052;-74
2022/03/25 12:24:21;;;;;;;26.30;22.20;;;;;;;;;;5053872;28;20061;-74
2022/03/25 12:27:08;;;;;;;24.95;21.27;;;;;;;;;;5053904;28;20056;-74
2022/03/25 12:29:37;;;;;;;26.65;21.90;;;;;;;;;;5053909;28;20048;-75
2022/03/25 12:32:14;;;;;;;27.75;21.67;;;;;;;;;;5053647;28;20060;-76
2022/03/25 12:35:04;;;;;;;24.55;21.50;;;;;;;;;;5053460;28;20037;-73
2022/03/25 12:37:30;;;;;;;25.20;21.40;;;;;;;;;;5044175;28;20049;-75
2022/03/25 12:40:08;;;;;;;25.20;22.10;;;;;;;;;;5031756;28;20057;-76
2022/03/25 12:42:34;;;;;;;26.25;21.95;;;;;;;;;;5035949;28;20100;-76
2022/03/25 12:45:01;;;;;;;29.38;22.27;;;;;;;;;;5033163;28;20108;-75
2022/03/25 12:47:31;;;;;;;28.15;22.35;;;;;;;;;;5032838;28;20049;-76
2022/03/25 12:49:59;;;;;;;27.17;22.38;;;;;;;;;;5033038;28;20045;-75
2022/03/25 12:52:26;;;;;;;30.15;21.90;;;;;;;;;;5031360;28;20632;-75
2022/03/25 12:54:53;;;;;;;25.50;21.85;;;;;;;;;;5032771;28;20488;-75
2022/03/25 12:57:33;;;;;;;23.77;19.83;;;;;;;;;;5032886;28;20041;-75
2022/03/25 12:59:59;;;;;;;23.77;18.45;;;;;;;;;;5033145;28;20118;-76
2022/03/25 13:02:30;;;;;;;21.75;17.83;;;;;;;;;;5032987;28;20049;-76
2022/03/25 13:05:07;;;;;;;21.85;18.17;;;;;;;;;;5032488;28;20109;-75
2022/03/25 13:07:33;;;;;;;23.50;18.13;;;;;;;;;;5039373;28;20114;-77
2022/03/25 13:10:00;;;;;;;20.88;17.35;;;;;;;;;;5049384;28;20122;-76
2022/03/25 13:12:30;;;;;;;17.92;15.65;;;;;;;;;;5052435;28;20389;-77
2022/03/25 13:14:59;;;;;;;16.20;14.20;;;;;;;;;;5052542;28;20041;-76
2022/03/25 13:17:25;;;;;;;;;;;;;;;;;;5052700;28;20095;-76
2022/03/25 13:19:56;;;;;;;17.30;15.05;;;;;;;;;;5052180;28;20015;-76
2022/03/25 13:22:22;;;;;;;17.15;14.68;;;;;;;;;;5050214;28;20053;-76
2022/03/25 13:24:49;;;;;;;;;;;;;;;;;;5052755;28;20111;-77
2022/03/25 13:27:15;;;;;;;15.77;13.93;;;;;;;;;;5052639;28;19921;-75
2022/03/25 13:29:41;;;;;;;;;;;;;;;;;;5052764;28;20049;-75
2022/03/25 13:32:08;;;;;;;16.05;14.02;;;;;;;;;;5052104;28;19971;-74
2022/03/25 13:34:36;;;;;;;18.55;14.25;;;;;;;;;;5044578;28;20421;-75
2022/03/25 13:37:03;;;;;;;18.40;14.77;;;;;;;;;;5036240;28;20080;-75
2022/03/25 13:39:29;;;;;;;;;;;;;;;;;;5037368;28;20050;-75
2022/03/25 13:42:00;;;;;;;17.27;14.95;;;;;;;;;;5033270;28;19921;-74
2022/03/25 13:44:26;;;;;;;20.27;15.82;;;;;;;;;;5032445;28;20536;-73
2022/03/25 13:46:53;;;;;;;;;;;;;;;;;;5032530;28;20390;-74
2022/03/25 13:49:21;;;;;;;21.42;17.85;;;;;;;;;;5031917;28;20273;-75
2022/03/25 13:51:48;;;;;;;19.98;17.13;;;;;;;;;;5031975;28;20087;-74
2022/03/25 13:54:16;;;;;;;19.13;16.55;;;;;;;;;;5031990;28;20049;-73
2022/03/25 13:56:46;;;;;;;24.35;17.63;;;;;;;;;;5018414;28;20049;-76
2022/03/25 13:59:23;;;;;;;20.83;17.67;;;;;;;;;;5031816;28;20053;-74
2022/03/25 14:01:49;;;;;;;20.15;16.75;;;;;;;;;;5031708;28;20049;-75
2022/03/25 14:04:19;;;;;;;22.00;17.20;;;;;;;;;;5032089;28;20053;-74
2022/03/25 14:06:47;;;;;;;19.75;15.95;;;;;;;;;;5031917;28;20049;-75
2022/03/25 14:09:32;;;;;;;21.92;16.48;;;;;;;;;;5031909;28;20530;-72
2022/03/25 14:12:00;;;;;;;21.73;18.20;;;;;;;;;;5016205;28;20100;-74
2022/03/25 14:14:26;;;;;;;22.30;17.85;;;;;;;;;;5022980;28;20095;-78
2022/03/25 14:16:56;;;;;;;20.50;16.30;;;;;;;;;;5030196;28;20053;-74
2022/03/25 14:19:23;;;;;;;20.92;17.05;;;;;;;;;;5015866;28;20048;-73
2022/03/25 14:21:50;;;;;;;21.60;17.17;;;;;;;;;;5029750;28;20072;-74
2022/03/25 14:24:33;;;;;;;19.30;17.30;;;;;;;;;;5018248;28;20053;-74
2022/03/25 14:27:04;;;;;;;19.85;16.98;;;;;;;;;;5031805;28;20049;-74
2022/03/25 14:29:31;;;;;;;18.10;16.23;;;;;;;;;;5031501;28;20103;-74
2022/03/25 14:31:57;;;;;;;19.50;17.45;;;;;;;;;;5030649;28;20516;-72